sensor_id;sensor_type;location;lat;lon;timestamp;P1;durP1;ratioP1;P2;durP2;ratioP2
70543;SDS011;58097;48.364;-1.224;2022-12-13T00:00:28;31.48;;;16.23;;
70543;SDS011;58097;48.364;-1.224;2022-12-13T00:02:54;32.67;;;15.68;;
70543;SDS011;58097;48.364;-1.224;2022-12-13T00:05:19;36.25;;;15.60;;
70543;SDS011;58097;48.364;-1.224;2022-12-13T00:07:45;35.00;;;15.50;;
70543;SDS011;58097;48.364;-1.224;2022-12-13T00:10:10;34.20;;;14.82;;
70543;SDS011;58097;48.364;-1.224;2022-12-13T00:12:35;39.47;;;16.40;;
70543;SDS011;58097;48.364;-1.224;2022-12-13T00:15:01;35.05;;;14.52;;
70543;SDS011;58097;48.364;-1.224;2022-12-13T00:17:26;33.30;;;14.13;;
70543;SDS011;58097;48.364;-1.224;2022-12-13T00:19:52;41.60;;;15.23;;
70543;SDS011;58097;48.364;-1.224;2022-12-13T00:22:17;31.52;;;14.63;;
70543;SDS011;58097;48.364;-1.224;2022-12-13T00:24:43;42.38;;;15.20;;
70543;SDS011;58097;48.364;-1.224;2022-12-13T00:27:08;41.97;;;16.08;;
70543;SDS011;58097;48.364;-1.224;2022-12-13T00:29:35;42.30;;;16.58;;
70543;SDS011;58097;48.364;-1.224;2022-12-13T00:32:00;30.65;;;15.43;;
70543;SDS011;58097;48.364;-1.224;2022-12-13T00:34:26;32.70;;;14.70;;
70543;SDS011;58097;48.364;-1.224;2022-12-13T00:36:52;33.92;;;16.42;;
70543;SDS011;58097;48.364;-1.224;2022-12-13T00:39:18;34.40;;;13.40;;
70543;SDS011;58097;48.364;-1.224;2022-12-13T00:41:43;38.47;;;14.00;;
70543;SDS011;58097;48.364;-1.224;2022-12-13T00:44:10;38.03;;;16.90;;
70543;SDS011;58097;48.364;-1.224;2022-12-13T00:46:37;42.40;;;15.40;;
70543;SDS011;58097;48.364;-1.224;2022-12-13T00:49:03;35.53;;;14.55;;
70543;SDS011;58097;48.364;-1.224;2022-12-13T00:51:29;32.80;;;14.30;;
70543;SDS011;58097;48.364;-1.224;2022-12-13T00:53:56;37.05;;;14.93;;
70543;SDS011;58097;48.364;-1.224;2022-12-13T00:56:23;34.05;;;14.02;;
70543;SDS011;58097;48.364;-1.224;2022-12-13T00:58:50;36.58;;;15.55;;
70543;SDS011;58097;48.364;-1.224;2022-12-13T01:01:17;36.17;;;17.05;;
70543;SDS011;58097;48.364;-1.224;2022-12-13T01:03:44;34.17;;;15.85;;
70543;SDS011;58097;48.364;-1.224;2022-12-13T01:06:20;33.15;;;14.82;;
70543;SDS011;58097;48.364;-1.224;2022-12-13T01:08:58;38.58;;;15.82;;
70543;SDS011;58097;48.364;-1.224;2022-12-13T01:11:24;32.72;;;15.00;;
70543;SDS011;58097;48.364;-1.224;2022-12-13T01:13:49;40.53;;;17.20;;
70543;SDS011;58097;48.364;-1.224;2022-12-13T01:16:15;36.17;;;15.63;;
70543;SDS011;58097;48.364;-1.224;2022-12-13T01:18:40;40.72;;;16.90;;
70543;SDS011;58097;48.364;-1.224;2022-12-13T01:21:07;41.10;;;17.50;;
70543;SDS011;58097;48.364;-1.224;2022-12-13T01:23:34;37.53;;;15.35;;
70543;SDS011;58097;48.364;-1.224;2022-12-13T01:26:03;34.35;;;14.52;;
70543;SDS011;58097;48.364;-1.224;2022-12-13T01:28:29;32.45;;;15.30;;
70543;SDS011;58097;48.364;-1.224;2022-12-13T01:30:55;34.55;;;14.55;;
70543;SDS011;58097;48.364;-1.224;2022-12-13T01:33:22;33.75;;;15.50;;
70543;SDS011;58097;48.364;-1.224;2022-12-13T01:35:48;33.72;;;14.00;;
70543;SDS011;58097;48.364;-1.224;2022-12-13T01:38:13;39.22;;;16.05;;
70543;SDS011;58097;48.364;-1.224;2022-12-13T01:40:42;38.60;;;15.75;;
70543;SDS011;58097;48.364;-1.224;2022-12-13T01:43:13;32.78;;;14.85;;
70543;SDS011;58097;48.364;-1.224;2022-12-13T01:45:39;37.97;;;15.98;;
70543;SDS011;58097;48.364;-1.224;2022-12-13T01:48:06;33.95;;;15.88;;
70543;SDS011;58097;48.364;-1.224;2022-12-13T01:50:38;33.03;;;14.80;;
70543;SDS011;58097;48.364;-1.224;2022-12-13T01:53:07;38.63;;;15.80;;
70543;SDS011;58097;48.364;-1.224;2022-12-13T01:55:37;35.47;;;14.20;;
70543;SDS011;58097;48.364;-1.224;2022-12-13T01:58:05;37.75;;;16.05;;
70543;SDS011;58097;48.364;-1.224;2022-12-13T02:00:31;32.85;;;15.77;;
70543;SDS011;58097;48.364;-1.224;2022-12-13T02:03:00;33.42;;;15.32;;
70543;SDS011;58097;48.364;-1.224;2022-12-13T02:05:27;33.80;;;14.88;;
70543;SDS011;58097;48.364;-1.224;2022-12-13T02:07:57;36.77;;;14.40;;
70543;SDS011;58097;48.364;-1.224;2022-12-13T02:10:25;34.88;;;14.95;;
70543;SDS011;58097;48.364;-1.224;2022-12-13T02:12:52;29.30;;;15.00;;
70543;SDS011;58097;48.364;-1.224;2022-12-13T02:15:17;36.22;;;15.80;;
70543;SDS011;58097;48.364;-1.224;2022-12-13T02:18:01;32.33;;;16.33;;
70543;SDS011;58097;48.364;-1.224;2022-12-13T02:34:22;29.88;;;14.77;;
70543;SDS011;58097;48.364;-1.224;2022-12-13T02:37:05;37.15;;;16.67;;
70543;SDS011;58097;48.364;-1.224;2022-12-13T02:39:32;35.63;;;15.20;;
70543;SDS011;58097;48.364;-1.224;2022-12-13T02:42:03;31.52;;;15.88;;
70543;SDS011;58097;48.364;-1.224;2022-12-13T02:44:39;33.22;;;14.18;;
70543;SDS011;58097;48.364;-1.224;2022-12-13T02:47:18;33.25;;;14.60;;
70543;SDS011;58097;48.364;-1.224;2022-12-13T02:49:48;32.85;;;14.40;;
70543;SDS011;58097;48.364;-1.224;2022-12-13T02:52:16;30.35;;;14.68;;
70543;SDS011;58097;48.364;-1.224;2022-12-13T02:54:45;31.77;;;15.25;;
70543;SDS011;58097;48.364;-1.224;2022-12-13T02:57:28;27.90;;;14.18;;
70543;SDS011;58097;48.364;-1.224;2022-12-13T02:59:59;28.35;;;15.18;;
70543;SDS011;58097;48.364;-1.224;2022-12-13T03:05:23;32.05;;;16.10;;
70543;SDS011;58097;48.364;-1.224;2022-12-13T03:11:18;37.80;;;15.55;;
70543;SDS011;58097;48.364;-1.224;2022-12-13T03:18:58;29.63;;;13.63;;
70543;SDS011;58097;48.364;-1.224;2022-12-13T03:21:26;38.22;;;15.27;;
70543;SDS011;58097;48.364;-1.224;2022-12-13T03:23:51;37.92;;;17.02;;
70543;SDS011;58097;48.364;-1.224;2022-12-13T03:26:19;32.67;;;13.90;;
70543;SDS011;58097;48.364;-1.224;2022-12-13T03:28:45;30.45;;;14.05;;
70543;SDS011;58097;48.364;-1.224;2022-12-13T03:31:11;34.83;;;15.18;;
70543;SDS011;58097;48.364;-1.224;2022-12-13T03:33:36;35.65;;;16.80;;
70543;SDS011;58097;48.364;-1.224;2022-12-13T03:36:03;37.05;;;15.43;;
70543;SDS011;58097;48.364;-1.224;2022-12-13T03:38:30;31.10;;;14.93;;
70543;SDS011;58097;48.364;-1.224;2022-12-13T03:40:56;31.02;;;14.13;;
70543;SDS011;58097;48.364;-1.224;2022-12-13T03:43:34;29.67;;;14.20;;
70543;SDS011;58097;48.364;-1.224;2022-12-13T03:46:00;28.92;;;13.40;;
70543;SDS011;58097;48.364;-1.224;2022-12-13T03:48:25;25.85;;;13.73;;
70543;SDS011;58097;48.364;-1.224;2022-12-13T03:50:51;36.40;;;13.38;;
70543;SDS011;58097;48.364;-1.224;2022-12-13T03:53:18;30.65;;;14.23;;
70543;SDS011;58097;48.364;-1.224;2022-12-13T03:55:44;32.17;;;13.95;;
70543;SDS011;58097;48.364;-1.224;2022-12-13T03:58:09;33.50;;;14.45;;
70543;SDS011;58097;48.364;-1.224;2022-12-13T04:00:35;23.10;;;12.27;;
70543;SDS011;58097;48.364;-1.224;2022-12-13T04:03:00;31.23;;;13.18;;
70543;SDS011;58097;48.364;-1.224;2022-12-13T04:05:26;31.70;;;14.20;;
70543;SDS011;58097;48.364;-1.224;2022-12-13T04:07:52;31.27;;;13.18;;
70543;SDS011;58097;48.364;-1.224;2022-12-13T04:10:17;32.85;;;14.88;;
70543;SDS011;58097;48.364;-1.224;2022-12-13T04:12:43;39.42;;;15.10;;
70543;SDS011;58097;48.364;-1.224;2022-12-13T04:15:27;32.33;;;13.68;;
70543;SDS011;58097;48.364;-1.224;2022-12-13T04:17:52;33.75;;;13.20;;
70543;SDS011;58097;48.364;-1.224;2022-12-13T04:20:17;39.33;;;14.35;;
70543;SDS011;58097;48.364;-1.224;2022-12-13T04:22:43;36.17;;;14.23;;
70543;SDS011;58097;48.364;-1.224;2022-12-13T04:25:08;40.13;;;14.55;;
70543;SDS011;58097;48.364;-1.224;2022-12-13T04:27:33;35.38;;;14.25;;
70543;SDS011;58097;48.364;-1.224;2022-12-13T04:30:02;33.85;;;13.65;;
70543;SDS011;58097;48.364;-1.224;2022-12-13T04:32:31;30.98;;;13.40;;
70543;SDS011;58097;48.364;-1.224;2022-12-13T04:34:56;30.20;;;13.10;;
70543;SDS011;58097;48.364;-1.224;2022-12-13T04:37:21;33.92;;;14.73;;
70543;SDS011;58097;48.364;-1.224;2022-12-13T04:39:47;34.10;;;14.77;;
70543;SDS011;58097;48.364;-1.224;2022-12-13T04:42:12;26.98;;;13.55;;
70543;SDS011;58097;48.364;-1.224;2022-12-13T04:44:37;32.28;;;14.05;;
70543;SDS011;58097;48.364;-1.224;2022-12-13T04:47:03;35.88;;;13.93;;
70543;SDS011;58097;48.364;-1.224;2022-12-13T04:49:29;27.15;;;13.25;;
70543;SDS011;58097;48.364;-1.224;2022-12-13T04:51:55;34.35;;;13.55;;
70543;SDS011;58097;48.364;-1.224;2022-12-13T04:54:20;29.13;;;14.77;;
70543;SDS011;58097;48.364;-1.224;2022-12-13T04:56:46;29.83;;;14.32;;
70543;SDS011;58097;48.364;-1.224;2022-12-13T04:59:11;30.05;;;13.48;;
70543;SDS011;58097;48.364;-1.224;2022-12-13T05:01:36;31.60;;;13.68;;
70543;SDS011;58097;48.364;-1.224;2022-12-13T05:04:02;28.83;;;13.35;;
70543;SDS011;58097;48.364;-1.224;2022-12-13T05:06:28;31.55;;;13.88;;
70543;SDS011;58097;48.364;-1.224;2022-12-13T05:08:54;31.45;;;14.23;;
70543;SDS011;58097;48.364;-1.224;2022-12-13T05:11:19;26.77;;;13.45;;
70543;SDS011;58097;48.364;-1.224;2022-12-13T05:13:45;26.23;;;12.10;;
70543;SDS011;58097;48.364;-1.224;2022-12-13T05:16:10;29.73;;;12.82;;
70543;SDS011;58097;48.364;-1.224;2022-12-13T05:18:36;26.33;;;12.00;;
70543;SDS011;58097;48.364;-1.224;2022-12-13T05:21:03;28.00;;;14.65;;
70543;SDS011;58097;48.364;-1.224;2022-12-13T05:23:30;33.20;;;13.50;;
70543;SDS011;58097;48.364;-1.224;2022-12-13T05:25:56;23.90;;;12.38;;
70543;SDS011;58097;48.364;-1.224;2022-12-13T05:28:22;27.48;;;13.23;;
70543;SDS011;58097;48.364;-1.224;2022-12-13T05:30:50;27.42;;;13.35;;
70543;SDS011;58097;48.364;-1.224;2022-12-13T05:33:16;34.67;;;14.27;;
70543;SDS011;58097;48.364;-1.224;2022-12-13T05:35:41;30.45;;;13.85;;
70543;SDS011;58097;48.364;-1.224;2022-12-13T05:38:06;32.70;;;14.20;;
70543;SDS011;58097;48.364;-1.224;2022-12-13T05:40:32;24.65;;;13.68;;
70543;SDS011;58097;48.364;-1.224;2022-12-13T05:42:57;25.38;;;12.70;;
70543;SDS011;58097;48.364;-1.224;2022-12-13T05:45:23;29.10;;;13.05;;
70543;SDS011;58097;48.364;-1.224;2022-12-13T05:47:49;28.70;;;13.55;;
70543;SDS011;58097;48.364;-1.224;2022-12-13T05:50:14;31.17;;;14.27;;
70543;SDS011;58097;48.364;-1.224;2022-12-13T05:52:44;30.58;;;13.68;;
70543;SDS011;58097;48.364;-1.224;2022-12-13T05:55:09;31.85;;;14.65;;
70543;SDS011;58097;48.364;-1.224;2022-12-13T05:57:35;34.70;;;14.13;;
70543;SDS011;58097;48.364;-1.224;2022-12-13T06:00:02;28.05;;;13.82;;
70543;SDS011;58097;48.364;-1.224;2022-12-13T06:02:28;29.05;;;13.02;;
70543;SDS011;58097;48.364;-1.224;2022-12-13T06:04:54;28.42;;;12.38;;
70543;SDS011;58097;48.364;-1.224;2022-12-13T06:07:19;33.45;;;15.93;;
70543;SDS011;58097;48.364;-1.224;2022-12-13T06:09:44;36.88;;;14.27;;
70543;SDS011;58097;48.364;-1.224;2022-12-13T06:12:10;30.17;;;12.88;;
70543;SDS011;58097;48.364;-1.224;2022-12-13T06:14:35;28.30;;;12.80;;
70543;SDS011;58097;48.364;-1.224;2022-12-13T06:17:01;30.17;;;13.82;;
70543;SDS011;58097;48.364;-1.224;2022-12-13T06:19:27;32.05;;;15.27;;
70543;SDS011;58097;48.364;-1.224;2022-12-13T06:21:52;34.22;;;15.13;;
70543;SDS011;58097;48.364;-1.224;2022-12-13T06:24:19;36.03;;;14.93;;
70543;SDS011;58097;48.364;-1.224;2022-12-13T06:26:46;28.33;;;13.93;;
70543;SDS011;58097;48.364;-1.224;2022-12-13T06:29:13;38.47;;;14.88;;
70543;SDS011;58097;48.364;-1.224;2022-12-13T06:31:39;34.83;;;17.40;;
70543;SDS011;58097;48.364;-1.224;2022-12-13T06:34:04;31.60;;;15.40;;
70543;SDS011;58097;48.364;-1.224;2022-12-13T06:36:30;41.80;;;18.88;;
70543;SDS011;58097;48.364;-1.224;2022-12-13T06:38:55;50.53;;;18.77;;
70543;SDS011;58097;48.364;-1.224;2022-12-13T06:41:20;45.28;;;16.95;;
70543;SDS011;58097;48.364;-1.224;2022-12-13T06:43:46;37.03;;;15.25;;
70543;SDS011;58097;48.364;-1.224;2022-12-13T06:46:13;42.35;;;18.45;;
70543;SDS011;58097;48.364;-1.224;2022-12-13T06:48:39;41.40;;;18.65;;
70543;SDS011;58097;48.364;-1.224;2022-12-13T06:51:05;39.83;;;16.77;;
70543;SDS011;58097;48.364;-1.224;2022-12-13T06:53:31;38.70;;;16.40;;
70543;SDS011;58097;48.364;-1.224;2022-12-13T06:56:05;36.70;;;15.55;;
70543;SDS011;58097;48.364;-1.224;2022-12-13T06:58:36;33.70;;;14.98;;
70543;SDS011;58097;48.364;-1.224;2022-12-13T07:01:06;33.40;;;14.10;;
70543;SDS011;58097;48.364;-1.224;2022-12-13T07:03:34;37.65;;;14.45;;
70543;SDS011;58097;48.364;-1.224;2022-12-13T07:06:04;36.97;;;15.13;;
70543;SDS011;58097;48.364;-1.224;2022-12-13T07:08:33;37.47;;;16.25;;
70543;SDS011;58097;48.364;-1.224;2022-12-13T07:10:59;32.15;;;16.02;;
70543;SDS011;58097;48.364;-1.224;2022-12-13T07:13:26;37.17;;;15.75;;
70543;SDS011;58097;48.364;-1.224;2022-12-13T07:15:51;34.08;;;15.50;;
70543;SDS011;58097;48.364;-1.224;2022-12-13T07:18:16;31.27;;;14.63;;
70543;SDS011;58097;48.364;-1.224;2022-12-13T07:20:42;33.35;;;14.43;;
70543;SDS011;58097;48.364;-1.224;2022-12-13T07:23:09;31.70;;;14.40;;
70543;SDS011;58097;48.364;-1.224;2022-12-13T07:25:35;36.53;;;14.88;;
70543;SDS011;58097;48.364;-1.224;2022-12-13T07:28:05;33.25;;;14.05;;
70543;SDS011;58097;48.364;-1.224;2022-12-13T07:30:33;29.42;;;13.38;;
70543;SDS011;58097;48.364;-1.224;2022-12-13T07:33:02;37.05;;;13.60;;
70543;SDS011;58097;48.364;-1.224;2022-12-13T07:35:29;27.45;;;13.45;;
70543;SDS011;58097;48.364;-1.224;2022-12-13T07:37:56;35.38;;;14.80;;
70543;SDS011;58097;48.364;-1.224;2022-12-13T07:40:22;31.17;;;15.07;;
70543;SDS011;58097;48.364;-1.224;2022-12-13T07:42:53;28.58;;;14.45;;
70543;SDS011;58097;48.364;-1.224;2022-12-13T07:45:20;31.83;;;15.15;;
70543;SDS011;58097;48.364;-1.224;2022-12-13T07:47:47;33.22;;;14.50;;
70543;SDS011;58097;48.364;-1.224;2022-12-13T07:50:13;33.90;;;17.17;;
70543;SDS011;58097;48.364;-1.224;2022-12-13T07:52:39;38.72;;;15.60;;
70543;SDS011;58097;48.364;-1.224;2022-12-13T07:55:05;31.85;;;15.00;;
70543;SDS011;58097;48.364;-1.224;2022-12-13T07:57:31;32.35;;;14.75;;
70543;SDS011;58097;48.364;-1.224;2022-12-13T07:59:57;29.15;;;14.35;;
70543;SDS011;58097;48.364;-1.224;2022-12-13T08:02:22;33.13;;;13.88;;
70543;SDS011;58097;48.364;-1.224;2022-12-13T08:04:48;30.02;;;14.35;;
70543;SDS011;58097;48.364;-1.224;2022-12-13T08:07:13;30.55;;;13.75;;
70543;SDS011;58097;48.364;-1.224;2022-12-13T08:09:39;27.90;;;12.70;;
70543;SDS011;58097;48.364;-1.224;2022-12-13T08:12:04;32.55;;;14.25;;
70543;SDS011;58097;48.364;-1.224;2022-12-13T08:14:30;36.72;;;14.70;;
70543;SDS011;58097;48.364;-1.224;2022-12-13T08:16:56;38.17;;;15.90;;
70543;SDS011;58097;48.364;-1.224;2022-12-13T08:19:21;35.67;;;14.18;;
70543;SDS011;58097;48.364;-1.224;2022-12-13T08:21:47;34.05;;;15.52;;
70543;SDS011;58097;48.364;-1.224;2022-12-13T08:24:12;33.95;;;15.05;;
70543;SDS011;58097;48.364;-1.224;2022-12-13T08:26:38;29.55;;;14.60;;
70543;SDS011;58097;48.364;-1.224;2022-12-13T08:29:03;33.92;;;15.68;;
70543;SDS011;58097;48.364;-1.224;2022-12-13T08:31:29;31.38;;;14.23;;
70543;SDS011;58097;48.364;-1.224;2022-12-13T08:33:55;31.88;;;13.75;;
70543;SDS011;58097;48.364;-1.224;2022-12-13T08:36:20;31.13;;;14.57;;
70543;SDS011;58097;48.364;-1.224;2022-12-13T08:38:48;32.35;;;15.25;;
70543;SDS011;58097;48.364;-1.224;2022-12-13T08:41:17;30.13;;;13.65;;
70543;SDS011;58097;48.364;-1.224;2022-12-13T08:43:43;35.58;;;16.02;;
70543;SDS011;58097;48.364;-1.224;2022-12-13T08:46:08;29.58;;;14.13;;
70543;SDS011;58097;48.364;-1.224;2022-12-13T08:48:33;38.58;;;14.20;;
70543;SDS011;58097;48.364;-1.224;2022-12-13T08:51:02;28.40;;;14.35;;
70543;SDS011;58097;48.364;-1.224;2022-12-13T08:53:33;29.13;;;13.68;;
70543;SDS011;58097;48.364;-1.224;2022-12-13T08:56:03;31.60;;;13.80;;
70543;SDS011;58097;48.364;-1.224;2022-12-13T08:58:31;28.35;;;12.68;;
70543;SDS011;58097;48.364;-1.224;2022-12-13T09:00:57;28.35;;;13.25;;
70543;SDS011;58097;48.364;-1.224;2022-12-13T09:03:23;34.65;;;14.23;;
70543;SDS011;58097;48.364;-1.224;2022-12-13T09:05:49;28.58;;;14.25;;
70543;SDS011;58097;48.364;-1.224;2022-12-13T09:08:14;28.98;;;13.45;;
70543;SDS011;58097;48.364;-1.224;2022-12-13T09:10:42;33.58;;;13.80;;
70543;SDS011;58097;48.364;-1.224;2022-12-13T09:13:07;38.72;;;15.30;;
70543;SDS011;58097;48.364;-1.224;2022-12-13T09:15:32;36.75;;;14.25;;
70543;SDS011;58097;48.364;-1.224;2022-12-13T09:17:58;34.65;;;15.07;;
70543;SDS011;58097;48.364;-1.224;2022-12-13T09:20:23;31.48;;;14.18;;
70543;SDS011;58097;48.364;-1.224;2022-12-13T09:22:49;26.20;;;13.45;;
70543;SDS011;58097;48.364;-1.224;2022-12-13T09:25:14;28.70;;;13.70;;
70543;SDS011;58097;48.364;-1.224;2022-12-13T09:27:40;31.63;;;14.85;;
70543;SDS011;58097;48.364;-1.224;2022-12-13T09:30:06;30.23;;;14.40;;
70543;SDS011;58097;48.364;-1.224;2022-12-13T09:32:36;24.65;;;12.43;;
70543;SDS011;58097;48.364;-1.224;2022-12-13T09:35:02;24.40;;;13.13;;
70543;SDS011;58097;48.364;-1.224;2022-12-13T09:37:28;33.40;;;14.15;;
70543;SDS011;58097;48.364;-1.224;2022-12-13T09:39:54;28.65;;;13.75;;
70543;SDS011;58097;48.364;-1.224;2022-12-13T09:42:23;31.92;;;13.30;;
70543;SDS011;58097;48.364;-1.224;2022-12-13T09:44:55;29.35;;;14.98;;
70543;SDS011;58097;48.364;-1.224;2022-12-13T09:47:32;34.22;;;15.25;;
70543;SDS011;58097;48.364;-1.224;2022-12-13T09:50:00;27.90;;;14.05;;
70543;SDS011;58097;48.364;-1.224;2022-12-13T09:52:37;26.85;;;13.50;;
70543;SDS011;58097;48.364;-1.224;2022-12-13T09:55:50;28.63;;;12.80;;
70543;SDS011;58097;48.364;-1.224;2022-12-13T09:57:55;30.83;;;13.60;;
70543;SDS011;58097;48.364;-1.224;2022-12-13T10:00:22;27.83;;;12.27;;
70543;SDS011;58097;48.364;-1.224;2022-12-13T10:02:52;33.72;;;14.68;;
70543;SDS011;58097;48.364;-1.224;2022-12-13T10:08:03;29.15;;;14.18;;
70543;SDS011;58097;48.364;-1.224;2022-12-13T10:10:29;38.15;;;17.10;;
70543;SDS011;58097;48.364;-1.224;2022-12-13T10:12:57;29.95;;;12.75;;
70543;SDS011;58097;48.364;-1.224;2022-12-13T10:15:27;32.97;;;15.75;;
70543;SDS011;58097;48.364;-1.224;2022-12-13T10:17:55;28.30;;;14.00;;
70543;SDS011;58097;48.364;-1.224;2022-12-13T10:20:22;28.63;;;13.50;;
70543;SDS011;58097;48.364;-1.224;2022-12-13T10:22:52;26.63;;;13.85;;
70543;SDS011;58097;48.364;-1.224;2022-12-13T10:25:18;26.33;;;13.63;;
70543;SDS011;58097;48.364;-1.224;2022-12-13T10:28:23;31.27;;;13.55;;
70543;SDS011;58097;48.364;-1.224;2022-12-13T10:30:51;36.80;;;17.23;;
70543;SDS011;58097;48.364;-1.224;2022-12-13T10:33:23;28.85;;;13.90;;
70543;SDS011;58097;48.364;-1.224;2022-12-13T10:36:29;25.08;;;13.68;;
70543;SDS011;58097;48.364;-1.224;2022-12-13T10:38:56;31.67;;;14.82;;
70543;SDS011;58097;48.364;-1.224;2022-12-13T10:41:35;31.30;;;15.30;;
70543;SDS011;58097;48.364;-1.224;2022-12-13T10:46:33;30.23;;;13.90;;
70543;SDS011;58097;48.364;-1.224;2022-12-13T10:48:59;29.33;;;14.50;;
70543;SDS011;58097;48.364;-1.224;2022-12-13T10:51:25;27.58;;;12.73;;
70543;SDS011;58097;48.364;-1.224;2022-12-13T10:53:52;31.48;;;13.23;;
70543;SDS011;58097;48.364;-1.224;2022-12-13T10:56:21;27.48;;;13.40;;
70543;SDS011;58097;48.364;-1.224;2022-12-13T11:01:46;27.10;;;13.52;;
70543;SDS011;58097;48.364;-1.224;2022-12-13T11:07:00;31.52;;;15.57;;
70543;SDS011;58097;48.364;-1.224;2022-12-13T11:09:44;28.10;;;13.10;;
70543;SDS011;58097;48.364;-1.224;2022-12-13T11:12:12;25.60;;;12.13;;
70543;SDS011;58097;48.364;-1.224;2022-12-13T11:14:59;23.25;;;11.85;;
70543;SDS011;58097;48.364;-1.224;2022-12-13T11:17:28;26.00;;;12.73;;
70543;SDS011;58097;48.364;-1.224;2022-12-13T11:19:59;26.40;;;13.50;;
70543;SDS011;58097;48.364;-1.224;2022-12-13T11:22:29;29.23;;;13.25;;
70543;SDS011;58097;48.364;-1.224;2022-12-13T11:24:59;24.65;;;12.20;;
70543;SDS011;58097;48.364;-1.224;2022-12-13T11:29:57;26.30;;;12.52;;
70543;SDS011;58097;48.364;-1.224;2022-12-13T11:35:25;24.23;;;11.20;;
70543;SDS011;58097;48.364;-1.224;2022-12-13T11:40:23;24.83;;;12.25;;
70543;SDS011;58097;48.364;-1.224;2022-12-13T11:42:56;25.00;;;13.07;;
70543;SDS011;58097;48.364;-1.224;2022-12-13T11:45:39;26.85;;;13.48;;
70543;SDS011;58097;48.364;-1.224;2022-12-13T11:50:41;21.65;;;10.93;;
70543;SDS011;58097;48.364;-1.224;2022-12-13T11:53:19;18.98;;;11.07;;
70543;SDS011;58097;48.364;-1.224;2022-12-13T11:56:14;19.30;;;10.82;;
70543;SDS011;58097;48.364;-1.224;2022-12-13T11:59:04;22.23;;;11.73;;
70543;SDS011;58097;48.364;-1.224;2022-12-13T12:01:42;20.05;;;10.13;;
70543;SDS011;58097;48.364;-1.224;2022-12-13T12:04:17;19.17;;;8.60;;
70543;SDS011;58097;48.364;-1.224;2022-12-13T12:09:28;22.10;;;11.35;;
70543;SDS011;58097;48.364;-1.224;2022-12-13T12:17:28;19.33;;;10.90;;
70543;SDS011;58097;48.364;-1.224;2022-12-13T12:19:55;21.05;;;11.43;;
70543;SDS011;58097;48.364;-1.224;2022-12-13T12:47:37;27.58;;;13.45;;
70543;SDS011;58097;48.364;-1.224;2022-12-13T12:53:10;25.92;;;12.45;;
70543;SDS011;58097;48.364;-1.224;2022-12-13T12:58:33;26.65;;;13.93;;
70543;SDS011;58097;48.364;-1.224;2022-12-13T13:01:15;25.60;;;12.52;;
70543;SDS011;58097;48.364;-1.224;2022-12-13T13:03:43;22.40;;;10.45;;
70543;SDS011;58097;48.364;-1.224;2022-12-13T13:06:20;24.92;;;12.55;;
70543;SDS011;58097;48.364;-1.224;2022-12-13T13:08:49;23.88;;;11.73;;
70543;SDS011;58097;48.364;-1.224;2022-12-13T13:11:21;28.15;;;12.55;;
70543;SDS011;58097;48.364;-1.224;2022-12-13T13:16:52;24.55;;;11.80;;
70543;SDS011;58097;48.364;-1.224;2022-12-13T13:21:48;20.42;;;11.05;;
70543;SDS011;58097;48.364;-1.224;2022-12-13T13:26:52;22.92;;;11.13;;
70543;SDS011;58097;48.364;-1.224;2022-12-13T13:29:43;25.90;;;11.10;;
70543;SDS011;58097;48.364;-1.224;2022-12-13T13:34:42;24.83;;;11.32;;
70543;SDS011;58097;48.364;-1.224;2022-12-13T13:42:28;25.35;;;11.40;;
70543;SDS011;58097;48.364;-1.224;2022-12-13T13:47:35;25.38;;;12.30;;
70543;SDS011;58097;48.364;-1.224;2022-12-13T13:52:53;20.85;;;11.60;;
70543;SDS011;58097;48.364;-1.224;2022-12-13T13:55:46;25.15;;;12.40;;
70543;SDS011;58097;48.364;-1.224;2022-12-13T14:23:56;22.42;;;11.77;;
70543;SDS011;58097;48.364;-1.224;2022-12-13T14:29:10;23.23;;;12.35;;
70543;SDS011;58097;48.364;-1.224;2022-12-13T14:34:06;28.45;;;13.40;;
70543;SDS011;58097;48.364;-1.224;2022-12-13T14:36:39;22.23;;;11.98;;
70543;SDS011;58097;48.364;-1.224;2022-12-13T14:39:13;31.33;;;15.05;;
70543;SDS011;58097;48.364;-1.224;2022-12-13T14:41:46;28.98;;;15.25;;
70543;SDS011;58097;48.364;-1.224;2022-12-13T14:44:14;23.80;;;12.85;;
70543;SDS011;58097;48.364;-1.224;2022-12-13T14:46:47;30.15;;;14.27;;
70543;SDS011;58097;48.364;-1.224;2022-12-13T14:49:14;31.63;;;15.73;;
70543;SDS011;58097;48.364;-1.224;2022-12-13T14:51:40;33.30;;;13.80;;
70543;SDS011;58097;48.364;-1.224;2022-12-13T14:54:06;31.00;;;14.27;;
70543;SDS011;58097;48.364;-1.224;2022-12-13T14:56:52;33.33;;;15.63;;
70543;SDS011;58097;48.364;-1.224;2022-12-13T14:59:25;25.42;;;14.48;;
70543;SDS011;58097;48.364;-1.224;2022-12-13T15:01:55;29.20;;;14.38;;
70543;SDS011;58097;48.364;-1.224;2022-12-13T15:04:29;24.35;;;12.50;;
70543;SDS011;58097;48.364;-1.224;2022-12-13T15:07:10;34.33;;;14.55;;
70543;SDS011;58097;48.364;-1.224;2022-12-13T15:09:49;30.42;;;13.45;;
70543;SDS011;58097;48.364;-1.224;2022-12-13T15:12:18;30.85;;;15.23;;
70543;SDS011;58097;48.364;-1.224;2022-12-13T15:14:46;27.05;;;12.90;;
70543;SDS011;58097;48.364;-1.224;2022-12-13T15:20:00;23.83;;;13.43;;
70543;SDS011;58097;48.364;-1.224;2022-12-13T15:22:26;26.83;;;11.75;;
70543;SDS011;58097;48.364;-1.224;2022-12-13T15:24:53;21.85;;;12.35;;
70543;SDS011;58097;48.364;-1.224;2022-12-13T15:27:19;33.03;;;14.68;;
70543;SDS011;58097;48.364;-1.224;2022-12-13T15:29:47;30.35;;;13.88;;
70543;SDS011;58097;48.364;-1.224;2022-12-13T15:32:17;29.92;;;14.23;;
70543;SDS011;58097;48.364;-1.224;2022-12-13T15:34:44;26.40;;;13.43;;
70543;SDS011;58097;48.364;-1.224;2022-12-13T15:37:15;22.15;;;11.45;;
70543;SDS011;58097;48.364;-1.224;2022-12-13T15:39:43;26.83;;;12.68;;
70543;SDS011;58097;48.364;-1.224;2022-12-13T15:45:02;21.48;;;12.27;;
70543;SDS011;58097;48.364;-1.224;2022-12-13T15:47:42;25.15;;;11.93;;
70543;SDS011;58097;48.364;-1.224;2022-12-13T15:50:27;27.20;;;13.50;;
70543;SDS011;58097;48.364;-1.224;2022-12-13T15:53:01;25.00;;;13.43;;
70543;SDS011;58097;48.364;-1.224;2022-12-13T15:55:43;27.70;;;15.65;;
70543;SDS011;58097;48.364;-1.224;2022-12-13T15:58:23;34.28;;;16.98;;
70543;SDS011;58097;48.364;-1.224;2022-12-13T16:00:51;29.92;;;16.13;;
70543;SDS011;58097;48.364;-1.224;2022-12-13T16:03:20;30.77;;;14.90;;
70543;SDS011;58097;48.364;-1.224;2022-12-13T16:08:23;25.30;;;12.13;;
70543;SDS011;58097;48.364;-1.224;2022-12-13T16:10:54;29.10;;;14.02;;
70543;SDS011;58097;48.364;-1.224;2022-12-13T16:13:29;25.77;;;13.73;;
70543;SDS011;58097;48.364;-1.224;2022-12-13T16:21:25;28.75;;;14.90;;
70543;SDS011;58097;48.364;-1.224;2022-12-13T16:23:51;33.08;;;13.93;;
70543;SDS011;58097;48.364;-1.224;2022-12-13T16:26:20;32.25;;;14.02;;
70543;SDS011;58097;48.364;-1.224;2022-12-13T16:28:50;32.67;;;14.57;;
70543;SDS011;58097;48.364;-1.224;2022-12-13T16:31:18;30.75;;;14.93;;
70543;SDS011;58097;48.364;-1.224;2022-12-13T16:33:47;29.52;;;16.20;;
70543;SDS011;58097;48.364;-1.224;2022-12-13T16:36:13;37.33;;;15.57;;
70543;SDS011;58097;48.364;-1.224;2022-12-13T16:38:38;26.33;;;15.40;;
70543;SDS011;58097;48.364;-1.224;2022-12-13T16:41:04;35.13;;;17.42;;
70543;SDS011;58097;48.364;-1.224;2022-12-13T16:43:31;33.60;;;16.88;;
70543;SDS011;58097;48.364;-1.224;2022-12-13T16:45:58;37.65;;;17.27;;
70543;SDS011;58097;48.364;-1.224;2022-12-13T16:48:26;33.63;;;15.20;;